Nerchinsk, Russia
Current Conditions -  °F | °C
As of 2:00 PM on Wednesday 22 Oct 2014 (Local Time) from UIAA Reporting Station
Broken Clouds Broken Clouds  
Wind Chill: 30°   Ceiling: 10000
Heat Index: 30°   Visibility: 6mi
Dew Point: 14°   Wind: 2mph
Humidity: 51%   Direction: NA
Pressure: 29.77"   Gusts: NA
Location:  52°N, 116.55°E
Report Text: UIAA 220500Z VRB01MPS 9999 BKN100 M01/M10 Q1008 NOSIG RMKQFE698 29CLRD70
Loading
Personal Weather Stations






























Interactive Weather Map
Tropical Storm Tracking
New forecast layout! Learn more

10-Day Weather Forecast

Advertisements
Track Severe Weather on mobile